sensor_id;sensor_type;location;lat;lon;timestamp;P1;P4;P2;P0;N10;N4;N25;N1;N05;TS
84066;SPS30;74151;52.134;5.500;2023-12-29T00:00:25;5.70;5.26;4.30;3.00;23.82;23.76;23.53;22.36;17.67;69.57
84066;SPS30;74151;52.134;5.500;2023-12-29T00:03:00;7.47;6.68;4.97;2.82;22.60;22.50;22.14;20.13;14.62;82.96
84066;SPS30;74151;52.134;5.500;2023-12-29T00:05:37;4.33;4.16;3.76;3.17;24.91;24.88;24.80;24.27;20.26;58.49
84066;SPS30;74151;52.134;5.500;2023-12-29T00:08:12;5.84;5.32;4.21;2.77;22.14;22.08;21.86;20.51;15.87;75.90
84066;SPS30;74151;52.134;5.500;2023-12-29T00:10:46;5.28;4.81;3.90;2.66;21.22;21.19;20.99;19.87;15.61;62.32
84066;SPS30;74151;52.134;5.500;2023-12-29T00:13:23;5.81;5.24;4.03;2.50;19.94;19.87;19.60;18.18;13.71;70.14
84066;SPS30;74151;52.134;5.500;2023-12-29T00:15:58;4.66;4.31;3.58;2.59;20.57;20.53;20.36;19.46;15.59;61.58
84066;SPS30;74151;52.134;5.500;2023-12-29T00:18:36;3.37;3.27;3.11;2.76;21.69;21.69;21.66;21.38;18.06;51.30
84066;SPS30;74151;52.134;5.500;2023-12-29T00:21:11;4.17;3.96;3.48;2.81;22.28;22.23;22.12;21.54;17.81;63.42
84066;SPS30;74151;52.134;5.500;2023-12-29T00:23:51;3.87;3.60;3.02;2.23;17.81;17.78;17.64;16.94;13.66;67.04
84066;SPS30;74151;52.134;5.500;2023-12-29T00:26:29;4.60;4.34;3.73;2.89;22.83;22.80;22.68;21.91;17.88;64.12
84066;SPS30;74151;52.134;5.500;2023-12-29T00:29:05;4.80;4.60;4.19;3.50;27.56;27.53;27.41;26.84;22.38;55.29
84066;SPS30;74151;52.134;5.500;2023-12-29T00:31:40;5.31;4.76;3.61;2.16;17.22;17.16;16.90;15.53;11.56;75.31
84066;SPS30;74151;52.134;5.500;2023-12-29T00:34:17;6.82;6.14;4.68;2.86;22.82;22.74;22.42;20.72;15.53;85.90
84066;SPS30;74151;52.134;5.500;2023-12-29T00:36:52;6.36;5.83;4.68;3.17;25.16;25.08;24.82;23.46;18.32;63.43
84066;SPS30;74151;52.134;5.500;2023-12-29T00:39:26;5.47;5.17;4.51;3.59;28.27;28.24;28.08;27.24;22.39;65.98
84066;SPS30;74151;52.134;5.500;2023-12-29T00:42:11;6.42;6.08;5.36;4.27;33.83;33.78;33.63;32.69;26.93;61.77
84066;SPS30;74151;52.134;5.500;2023-12-29T00:44:49;9.01;8.03;5.91;3.28;26.28;26.17;25.70;23.26;16.64;90.30
84066;SPS30;74151;52.134;5.500;2023-12-29T00:47:25;6.33;5.84;4.79;3.39;26.83;26.78;26.54;25.24;20.03;75.58
84066;SPS30;74151;52.134;5.500;2023-12-29T00:50:02;7.20;6.49;4.96;3.03;24.22;24.16;23.81;22.01;16.53;79.23
84066;SPS30;74151;52.134;5.500;2023-12-29T00:52:38;4.09;3.91;3.48;2.86;22.54;22.50;22.41;21.87;18.12;56.01
84066;SPS30;74151;52.134;5.500;2023-12-29T00:55:13;8.47;7.59;5.72;3.34;26.88;26.78;26.37;24.17;17.86;82.51
84066;SPS30;74151;52.134;5.500;2023-12-29T00:57:47;5.69;5.17;4.10;2.69;21.34;21.29;21.04;19.77;15.26;80.63
84066;SPS30;74151;52.134;5.500;2023-12-29T01:00:22;5.56;5.18;4.38;3.26;25.70;25.66;25.47;24.47;19.73;67.74
84066;SPS30;74151;52.134;5.500;2023-12-29T01:02:56;3.39;3.34;3.21;2.91;22.92;22.92;22.89;22.66;19.26;48.79
84066;SPS30;74151;52.134;5.500;2023-12-29T01:05:33;4.38;4.14;3.66;2.90;22.91;22.87;22.77;22.10;18.21;55.18
84066;SPS30;74151;52.134;5.500;2023-12-29T01:08:08;5.33;4.94;4.14;3.04;24.16;24.10;23.93;22.92;18.43;61.69
84066;SPS30;74151;52.134;5.500;2023-12-29T01:10:44;4.87;4.38;3.30;1.97;15.71;15.64;15.41;14.17;10.48;77.91
84066;SPS30;74151;52.134;5.500;2023-12-29T01:13:21;4.40;4.07;3.34;2.39;18.97;18.92;18.74;17.88;14.23;73.72
84066;SPS30;74151;52.134;5.500;2023-12-29T01:15:58;5.00;4.63;3.87;2.84;22.60;22.56;22.38;21.47;17.23;64.68
84066;SPS30;74151;52.134;5.500;2023-12-29T01:18:35;6.92;6.20;4.54;2.54;20.27;20.20;19.82;17.92;12.87;84.87
84066;SPS30;74151;52.134;5.500;2023-12-29T01:21:14;4.44;4.14;3.50;2.62;20.82;20.80;20.62;19.86;16.02;61.23
84066;SPS30;74151;52.134;5.500;2023-12-29T01:23:51;3.23;3.18;3.03;2.73;21.49;21.48;21.46;21.21;17.99;46.91
84066;SPS30;74151;52.134;5.500;2023-12-29T01:26:28;4.99;4.70;4.09;3.20;25.20;25.13;25.02;24.21;19.83;56.49
84066;SPS30;74151;52.134;5.500;2023-12-29T01:29:02;3.60;3.36;2.78;2.04;16.08;16.06;15.92;15.22;12.21;73.74
84066;SPS30;74151;52.134;5.500;2023-12-29T01:31:38;4.40;4.09;3.43;2.52;20.00;19.99;19.82;18.98;15.26;57.87
84066;SPS30;74151;52.134;5.500;2023-12-29T01:34:15;3.84;3.67;3.37;2.86;22.58;22.58;22.49;22.03;18.44;46.76
84066;SPS30;74151;52.134;5.500;2023-12-29T01:36:50;3.66;3.48;3.11;2.54;20.13;20.09;20.00;19.51;16.18;61.64
84066;SPS30;74151;52.134;5.500;2023-12-29T01:39:30;4.51;4.30;3.88;3.21;25.38;25.36;25.26;24.67;20.51;53.44
84066;SPS30;74151;52.134;5.500;2023-12-29T01:42:07;4.02;3.82;3.38;2.73;21.52;21.51;21.41;20.82;17.20;51.63
84066;SPS30;74151;52.134;5.500;2023-12-29T01:44:46;4.81;4.60;4.11;3.40;26.86;26.80;26.69;26.07;21.64;57.32
84066;SPS30;74151;52.134;5.500;2023-12-29T01:47:29;4.63;4.42;3.94;3.24;25.69;25.66;25.56;24.94;20.70;61.64
84066;SPS30;74151;52.134;5.500;2023-12-29T01:50:06;4.67;4.31;3.61;2.64;20.98;20.94;20.79;19.91;15.99;66.86
84066;SPS30;74151;52.134;5.500;2023-12-29T01:52:45;3.93;3.79;3.40;2.89;22.82;22.81;22.72;22.23;18.57;52.34
84066;SPS30;74151;52.134;5.500;2023-12-29T01:55:23;4.64;4.34;3.69;2.74;21.86;21.80;21.68;20.82;16.84;51.94
84066;SPS30;74151;52.134;5.500;2023-12-29T01:58:05;5.31;5.07;4.53;3.72;29.36;29.32;29.21;28.49;23.62;51.62
84066;SPS30;74151;52.134;5.500;2023-12-29T02:00:39;5.24;4.93;4.26;3.33;26.29;26.23;26.09;25.23;20.62;55.89
84066;SPS30;74151;52.134;5.500;2023-12-29T02:03:14;7.32;6.80;5.61;4.04;32.08;32.03;31.76;30.36;24.21;64.90
84066;SPS30;74151;52.134;5.500;2023-12-29T02:05:49;5.27;4.97;4.32;3.36;26.72;26.68;26.53;25.70;21.04;58.18
84066;SPS30;74151;52.134;5.500;2023-12-29T02:08:24;4.78;4.63;4.34;3.80;29.90;29.88;29.81;29.36;24.72;53.69
84066;SPS30;74151;52.134;5.500;2023-12-29T02:10:59;3.98;3.71;3.14;2.37;18.70;18.67;18.53;17.83;14.41;70.67
84066;SPS30;74151;52.134;5.500;2023-12-29T02:13:38;4.61;4.44;4.08;3.47;27.40;27.40;27.30;26.77;22.41;52.34
84066;SPS30;74151;52.134;5.500;2023-12-29T02:16:20;4.12;3.96;3.61;3.04;24.00;24.00;23.91;23.41;19.56;62.09
84066;SPS30;74151;52.134;5.500;2023-12-29T02:19:13;3.88;3.73;3.42;2.92;23.01;23.00;22.91;22.48;18.84;52.32
84066;SPS30;74151;52.134;5.500;2023-12-29T02:22:06;6.77;6.10;4.67;2.79;22.44;22.38;22.04;20.34;15.21;85.24
84066;SPS30;74151;52.134;5.500;2023-12-29T02:24:45;7.40;6.48;4.59;2.21;17.90;17.80;17.34;15.16;10.01;90.08
84066;SPS30;74151;52.134;5.500;2023-12-29T02:33:19;7.81;6.90;4.94;2.52;20.34;20.24;19.79;17.52;11.98;89.82
84066;SPS30;74151;52.134;5.500;2023-12-29T02:36:01;5.69;5.27;4.37;3.18;25.01;24.98;24.76;23.64;18.90;62.47
84066;SPS30;74151;52.134;5.500;2023-12-29T02:38:39;6.21;5.64;4.46;2.92;23.42;23.36;23.07;21.67;16.76;78.04
84066;SPS30;74151;52.134;5.500;2023-12-29T02:41:19;8.23;7.39;5.57;3.27;26.20;26.12;25.70;23.58;17.39;83.76
84066;SPS30;74151;52.134;5.500;2023-12-29T02:43:54;7.41;6.70;5.18;3.23;25.77;25.69;25.33;23.53;17.82;73.97
84066;SPS30;74151;52.134;5.500;2023-12-29T02:46:28;7.03;6.39;4.99;3.17;25.36;25.28;24.98;23.31;17.83;82.00
84066;SPS30;74151;52.134;5.500;2023-12-29T02:49:07;5.90;5.53;4.79;3.72;29.41;29.38;29.20;28.24;23.06;53.69
84066;SPS30;74151;52.134;5.500;2023-12-29T02:51:46;4.76;4.50;3.97;3.13;24.91;24.89;24.77;24.03;19.78;53.18
84066;SPS30;74151;52.134;5.500;2023-12-29T02:54:22;3.88;3.72;3.42;2.90;22.82;22.81;22.72;22.28;18.62;50.16
84066;SPS30;74151;52.134;5.500;2023-12-29T02:57:01;5.34;5.08;4.54;3.68;29.22;29.18;29.03;28.31;23.46;53.33
84066;SPS30;74151;52.134;5.500;2023-12-29T02:59:40;6.14;5.77;4.96;3.80;30.23;30.17;29.99;28.99;23.62;57.02
84066;SPS30;74151;52.134;5.500;2023-12-29T03:02:18;4.33;4.22;3.99;3.53;27.91;27.90;27.83;27.47;23.23;46.08
84066;SPS30;74151;52.134;5.500;2023-12-29T03:04:53;4.41;4.32;4.10;3.68;29.01;28.99;28.93;28.59;24.24;46.51
84066;SPS30;74151;52.134;5.500;2023-12-29T03:07:27;7.04;6.52;5.36;3.79;30.10;30.03;29.77;28.37;22.53;65.09
84066;SPS30;74151;52.134;5.500;2023-12-29T03:10:04;5.54;5.50;5.41;5.04;39.64;39.64;39.63;39.34;33.64;49.30
84066;SPS30;74151;52.134;5.500;2023-12-29T03:12:41;4.39;4.39;4.39;4.18;32.87;32.86;32.86;32.74;28.14;41.26
84066;SPS30;74151;52.134;5.500;2023-12-29T03:15:15;5.84;5.64;5.20;4.47;35.21;35.20;35.10;34.46;28.91;50.83
84066;SPS30;74151;52.134;5.500;2023-12-29T03:17:50;6.31;5.91;5.10;3.93;31.13;31.11;30.91;29.86;24.34;51.88
84066;SPS30;74151;52.134;5.500;2023-12-29T03:20:24;5.10;4.97;4.69;4.14;32.73;32.70;32.66;32.20;27.21;45.44
84066;SPS30;74151;52.134;5.500;2023-12-29T03:23:01;6.40;6.06;5.38;4.31;34.27;34.21;34.07;33.14;27.37;56.70
84066;SPS30;74151;52.134;5.500;2023-12-29T03:25:36;9.51;8.50;6.36;3.67;29.27;29.16;28.68;26.17;19.12;81.38
84066;SPS30;74151;52.134;5.500;2023-12-29T03:28:13;6.21;5.76;4.72;3.34;26.62;26.58;26.36;25.10;19.96;64.72
84066;SPS30;74151;52.134;5.500;2023-12-29T03:30:49;12.07;10.76;7.94;4.42;35.44;35.30;34.68;31.37;22.56;79.33
84066;SPS30;74151;52.134;5.500;2023-12-29T03:33:24;6.78;6.21;5.04;3.49;27.74;27.67;27.38;25.98;20.49;79.74
84066;SPS30;74151;52.134;5.500;2023-12-29T03:36:06;6.02;5.87;5.54;4.90;38.69;38.67;38.59;38.07;32.18;57.99
84066;SPS30;74151;52.134;5.500;2023-12-29T03:38:42;9.91;8.76;6.22;3.10;24.92;24.79;24.26;21.32;14.36;92.84
84066;SPS30;74151;52.134;5.500;2023-12-29T03:41:21;6.72;6.33;5.50;4.32;34.12;34.10;33.90;32.84;26.90;66.52
84066;SPS30;74151;52.134;5.500;2023-12-29T03:43:58;6.56;6.07;5.01;3.57;28.42;28.37;28.12;26.83;21.37;62.57
84066;SPS30;74151;52.134;5.500;2023-12-29T03:46:33;5.78;5.48;4.76;3.72;29.52;29.48;29.32;28.41;23.29;59.14
84066;SPS30;74151;52.134;5.500;2023-12-29T03:49:07;8.04;7.13;5.18;2.74;22.16;22.06;21.62;19.37;13.58;82.34
84066;SPS30;74151;52.134;5.500;2023-12-29T03:51:42;6.03;5.61;4.69;3.43;27.19;27.11;26.91;25.77;20.67;59.90
84066;SPS30;74151;52.134;5.500;2023-12-29T03:54:21;9.51;8.60;6.56;3.97;31.72;31.61;31.14;28.74;21.51;74.06
84066;SPS30;74151;52.134;5.500;2023-12-29T03:56:55;6.59;5.97;4.72;3.09;24.51;24.42;24.14;22.66;17.46;67.87
84066;SPS30;74151;52.134;5.500;2023-12-29T03:59:32;8.88;7.98;6.11;3.68;29.56;29.46;29.03;26.79;20.06;83.92
84066;SPS30;74151;52.134;5.500;2023-12-29T04:02:12;9.57;8.56;6.39;3.66;29.34;29.21;28.76;26.21;19.11;84.36
84066;SPS30;74151;52.134;5.500;2023-12-29T04:04:49;9.03;8.29;6.62;4.47;35.63;35.53;35.19;33.20;25.94;68.19
84066;SPS30;74151;52.134;5.500;2023-12-29T04:07:24;8.17;7.38;5.62;3.40;27.19;27.10;26.72;24.67;18.44;79.32
84066;SPS30;74151;52.134;5.500;2023-12-29T04:10:01;6.07;5.61;4.64;3.34;26.59;26.54;26.32;25.14;20.08;72.99
84066;SPS30;74151;52.134;5.500;2023-12-29T04:12:36;6.88;6.29;5.06;3.43;27.26;27.20;26.91;25.42;19.88;69.63
84066;SPS30;74151;52.134;5.500;2023-12-29T04:15:13;9.06;7.98;5.59;2.62;21.48;21.34;20.84;18.08;11.79;96.43
84066;SPS30;74151;52.134;5.500;2023-12-29T04:17:50;6.59;6.08;5.01;3.54;28.21;28.14;27.90;26.58;21.16;73.81
84066;SPS30;74151;52.134;5.500;2023-12-29T04:20:25;7.09;6.44;5.06;3.29;26.10;26.02;25.72;24.04;18.49;76.22
84066;SPS30;74151;52.134;5.500;2023-12-29T04:23:02;5.20;4.79;3.89;2.68;21.24;21.20;20.97;19.90;15.66;63.51
84066;SPS30;74151;52.134;5.500;2023-12-29T04:25:40;6.13;5.63;4.61;3.20;25.46;25.39;25.16;23.88;18.89;72.02
84066;SPS30;74151;52.134;5.500;2023-12-29T04:28:14;6.68;6.16;4.98;3.44;27.32;27.24;27.00;25.58;20.14;76.82
84066;SPS30;74151;52.134;5.500;2023-12-29T04:30:49;7.39;6.77;5.38;3.58;28.63;28.56;28.23;26.60;20.72;74.56
84066;SPS30;74151;52.134;5.500;2023-12-29T04:33:26;8.01;7.23;5.57;3.43;27.48;27.40;27.02;25.06;18.90;86.40
84066;SPS30;74151;52.134;5.500;2023-12-29T04:36:03;9.08;8.18;6.26;3.78;30.21;30.11;29.69;27.41;20.51;82.16
84066;SPS30;74151;52.134;5.500;2023-12-29T04:38:40;8.69;7.80;5.87;3.40;27.30;27.20;26.79;24.51;18.02;77.13
84066;SPS30;74151;52.134;5.500;2023-12-29T04:41:17;7.10;6.50;5.20;3.51;27.89;27.81;27.53;25.99;20.28;68.30
84066;SPS30;74151;52.134;5.500;2023-12-29T04:43:51;5.26;5.03;4.50;3.70;29.29;29.28;29.16;28.47;23.62;46.60
84066;SPS30;74151;52.134;5.500;2023-12-29T04:46:25;7.36;6.78;5.53;3.92;31.01;30.98;30.70;29.21;23.14;66.41
84066;SPS30;74151;52.134;5.500;2023-12-29T04:49:00;7.43;6.81;5.44;3.68;29.13;29.07;28.74;27.13;21.18;67.54
84066;SPS30;74151;52.134;5.500;2023-12-29T04:51:37;12.17;10.74;7.63;3.78;30.64;30.47;29.79;26.19;17.64;87.60
84066;SPS30;74151;52.134;5.500;2023-12-29T04:54:16;7.32;6.72;5.44;3.78;30.00;29.94;29.66;28.10;22.16;67.19
84066;SPS30;74151;52.134;5.500;2023-12-29T04:56:52;9.83;8.72;6.32;3.37;27.13;27.00;26.50;23.72;16.62;91.51
84066;SPS30;74151;52.134;5.500;2023-12-29T04:59:29;11.67;10.31;7.42;3.82;30.83;30.66;30.03;26.64;18.36;92.38
84066;SPS30;74151;52.134;5.500;2023-12-29T05:02:06;12.89;11.48;8.41;4.57;36.74;36.58;35.90;32.34;22.97;90.24
84066;SPS30;74151;52.134;5.500;2023-12-29T05:04:43;10.23;9.12;6.71;3.71;29.81;29.69;29.16;26.34;18.90;86.00
84066;SPS30;74151;52.134;5.500;2023-12-29T05:07:20;10.68;9.39;6.53;3.10;24.96;24.78;24.18;20.91;13.56;91.37
84066;SPS30;74151;52.134;5.500;2023-12-29T05:09:54;11.94;10.52;7.42;3.61;29.28;29.12;28.44;24.89;16.53;95.53
84066;SPS30;74151;52.134;5.500;2023-12-29T05:12:29;9.30;8.34;6.23;3.64;29.17;29.07;28.61;26.18;19.22;81.39
84066;SPS30;74151;52.134;5.500;2023-12-29T05:15:06;10.67;9.46;6.83;3.57;28.70;28.59;28.00;24.96;17.31;85.76
84066;SPS30;74151;52.134;5.500;2023-12-29T05:17:40;8.79;7.89;5.93;3.47;27.86;27.74;27.32;25.03;18.47;80.06
84066;SPS30;74151;52.134;5.500;2023-12-29T05:20:15;12.00;10.56;7.46;3.66;29.36;29.22;28.53;24.94;16.58;96.49
84066;SPS30;74151;52.134;5.500;2023-12-29T05:22:49;10.28;9.14;6.73;3.70;29.72;29.59;29.07;26.24;18.73;97.64
84066;SPS30;74151;52.134;5.500;2023-12-29T05:25:24;7.82;7.16;5.70;3.81;30.34;30.26;29.94;28.20;21.96;75.21
84066;SPS30;74151;52.134;5.500;2023-12-29T05:27:58;8.11;7.28;5.51;3.24;26.09;26.00;25.61;23.54;17.43;84.36
84066;SPS30;74151;52.134;5.500;2023-12-29T05:30:33;6.04;5.56;4.51;3.13;24.94;24.89;24.64;23.38;18.44;72.22
84066;SPS30;74151;52.134;5.500;2023-12-29T05:33:10;6.94;6.31;4.94;3.22;25.56;25.48;25.17;23.56;18.10;73.26
84066;SPS30;74151;52.134;5.500;2023-12-29T05:35:47;12.34;10.80;7.48;3.40;27.60;27.43;26.70;22.89;14.43;90.17
84066;SPS30;74151;52.134;5.500;2023-12-29T05:38:21;9.42;8.41;6.23;3.49;27.97;27.84;27.37;24.83;17.92;78.97
84066;SPS30;74151;52.134;5.500;2023-12-29T05:40:58;7.57;6.86;5.31;3.32;26.62;26.56;26.21;24.40;18.53;76.20
84066;SPS30;74151;52.134;5.500;2023-12-29T05:43:39;7.21;6.56;5.13;3.30;26.31;26.24;25.92;24.23;18.59;81.46
84066;SPS30;74151;52.134;5.500;2023-12-29T05:46:14;7.29;6.54;4.98;2.98;23.79;23.71;23.34;21.50;16.01;73.08
84066;SPS30;74151;52.134;5.500;2023-12-29T05:48:48;7.91;7.11;5.47;3.34;26.68;26.61;26.23;24.26;18.22;75.51
84066;SPS30;74151;52.134;5.500;2023-12-29T05:51:27;8.93;7.79;5.30;2.27;18.50;18.36;17.82;14.98;8.97;96.90
84066;SPS30;74151;52.134;5.500;2023-12-29T05:54:01;11.63;10.13;6.93;3.04;24.77;24.61;23.92;20.26;12.40;104.17
84066;SPS30;74151;52.134;5.500;2023-12-29T05:56:38;9.33;8.20;5.79;2.81;22.64;22.53;22.00;19.21;12.72;84.60
84066;SPS30;74151;52.134;5.500;2023-12-29T05:59:13;10.90;9.48;6.39;2.63;21.63;21.49;20.81;17.28;10.03;103.26
84066;SPS30;74151;52.134;5.500;2023-12-29T06:01:48;5.83;5.37;4.39;3.09;24.56;24.48;24.27;23.08;18.30;65.03
84066;SPS30;74151;52.134;5.500;2023-12-29T06:04:27;8.89;7.82;5.53;2.70;21.91;21.79;21.29;18.63;12.42;83.98
84066;SPS30;74151;52.134;5.500;2023-12-29T06:07:06;9.11;8.12;5.97;3.29;26.32;26.21;25.76;23.23;16.60;78.63
84066;SPS30;74151;52.134;5.500;2023-12-29T06:09:40;12.03;10.43;6.94;2.72;22.31;22.13;21.39;17.40;9.48;111.24
84066;SPS30;74151;52.134;5.500;2023-12-29T06:12:18;8.78;7.88;5.97;3.56;28.48;28.38;27.94;25.70;19.08;69.77
84066;SPS30;74151;52.134;5.500;2023-12-29T06:14:57;7.40;6.78;5.39;3.58;28.61;28.52;28.22;26.57;20.67;68.53
84066;SPS30;74151;52.134;5.500;2023-12-29T06:17:32;9.21;8.09;5.70;2.74;22.23;22.11;21.57;18.81;12.41;86.14
84066;SPS30;74151;52.134;5.500;2023-12-29T06:20:08;6.08;5.58;4.53;3.14;24.91;24.88;24.64;23.37;18.42;68.24
84066;SPS30;74151;52.134;5.500;2023-12-29T06:22:43;9.44;8.34;6.02;3.09;25.00;24.87;24.33;21.63;14.91;82.81
84066;SPS30;74151;52.134;5.500;2023-12-29T06:25:17;6.22;5.90;5.11;4.02;31.73;31.68;31.52;30.52;25.01;55.50
84066;SPS30;74151;52.134;5.500;2023-12-29T06:27:54;7.76;6.87;4.98;2.62;21.09;20.99;20.58;18.39;12.82;93.66
84066;SPS30;74151;52.134;5.500;2023-12-29T06:30:29;8.18;7.28;5.31;2.88;23.09;22.99;22.53;20.28;14.36;85.07
84066;SPS30;74151;52.134;5.500;2023-12-29T06:33:04;7.13;6.39;4.82;2.83;22.70;22.62;22.28;20.42;15.07;77.56
84066;SPS30;74151;52.134;5.500;2023-12-29T06:35:39;8.02;7.21;5.46;3.23;25.92;25.82;25.43;23.40;17.33;79.11
84066;SPS30;74151;52.134;5.500;2023-12-29T06:38:13;6.20;5.67;4.48;2.97;23.73;23.68;23.40;22.02;17.09;70.32
84066;SPS30;74151;52.134;5.500;2023-12-29T06:40:52;7.30;6.74;5.52;3.91;31.12;31.04;30.78;29.30;23.28;68.84
84066;SPS30;74151;52.134;5.500;2023-12-29T06:43:29;7.54;6.97;5.70;4.01;31.82;31.76;31.47;29.93;23.71;70.56
84066;SPS30;74151;52.134;5.500;2023-12-29T06:46:06;7.66;6.88;5.21;3.10;24.88;24.80;24.44;22.49;16.69;81.57
84066;SPS30;74151;52.134;5.500;2023-12-29T06:48:47;7.06;6.41;5.04;3.29;26.19;26.11;25.80;24.18;18.62;72.66
84066;SPS30;74151;52.134;5.500;2023-12-29T06:51:24;15.00;13.00;8.67;3.42;27.96;27.74;26.80;21.84;12.00;98.84
84066;SPS30;74151;52.134;5.500;2023-12-29T06:53:58;6.82;6.21;4.89;3.18;25.47;25.38;25.08;23.54;18.16;78.66
84066;SPS30;74151;52.134;5.500;2023-12-29T06:56:33;6.08;5.69;4.87;3.69;29.17;29.17;28.97;27.92;22.67;56.08
84066;SPS30;74151;52.134;5.500;2023-12-29T06:59:09;6.94;6.27;4.83;3.02;23.99;23.89;23.58;21.87;16.54;75.12
84066;SPS30;74151;52.134;5.500;2023-12-29T07:01:44;7.72;6.93;5.23;3.06;24.58;24.49;24.11;22.10;16.30;75.00
84066;SPS30;74151;52.134;5.500;2023-12-29T07:04:21;6.14;5.79;5.00;3.88;30.74;30.69;30.52;29.53;24.13;60.51
84066;SPS30;74151;52.134;5.500;2023-12-29T07:07:00;6.28;5.83;4.86;3.53;28.11;28.08;27.86;26.66;21.36;61.74
84066;SPS30;74151;52.134;5.500;2023-12-29T07:09:38;6.29;5.76;4.63;3.19;25.28;25.21;24.97;23.60;18.52;71.68
84066;SPS30;74151;52.134;5.500;2023-12-29T07:12:13;6.28;5.96;5.19;4.12;32.56;32.53;32.38;31.43;25.80;69.02
84066;SPS30;74151;52.134;5.500;2023-12-29T07:14:50;2.91;2.90;2.83;2.64;20.81;20.81;20.78;20.64;17.63;44.73
84066;SPS30;74151;52.134;5.500;2023-12-29T07:17:28;6.28;5.80;4.72;3.29;26.18;26.11;25.88;24.58;19.44;73.81
84066;SPS30;74151;52.134;5.500;2023-12-29T07:20:06;5.80;5.48;4.78;3.79;29.97;29.93;29.78;28.88;23.71;58.32
84066;SPS30;74151;52.134;5.500;2023-12-29T07:22:44;4.39;4.21;3.83;3.20;25.37;25.36;25.26;24.74;20.63;56.99
84066;SPS30;74151;52.134;5.500;2023-12-29T07:25:18;3.33;3.30;3.22;3.00;23.47;23.47;23.43;23.26;19.83;49.23
84066;SPS30;74151;52.134;5.500;2023-12-29T07:27:55;4.61;4.39;3.90;3.20;25.18;25.14;25.03;24.39;20.21;57.94
84066;SPS30;74151;52.134;5.500;2023-12-29T07:30:34;4.09;3.89;3.46;2.82;22.23;22.20;22.11;21.53;17.81;56.56
84066;SPS30;74151;52.134;5.500;2023-12-29T07:33:11;5.74;5.30;4.34;3.07;24.43;24.37;24.14;23.01;18.26;71.56
84066;SPS30;74151;52.134;5.500;2023-12-29T07:35:48;3.64;3.52;3.26;2.82;22.27;22.24;22.18;21.80;18.31;51.48
84066;SPS30;74151;52.134;5.500;2023-12-29T07:38:25;3.51;3.32;2.93;2.33;18.57;18.54;18.46;17.92;14.80;58.69
84066;SPS30;74151;52.134;5.500;2023-12-29T07:41:00;4.53;4.34;3.93;3.30;26.04;26.00;25.92;25.36;21.14;55.69
84066;SPS30;74151;52.134;5.500;2023-12-29T07:43:35;3.81;3.60;3.12;2.48;19.67;19.66;19.54;18.96;15.57;57.91
84066;SPS30;74151;52.134;5.500;2023-12-29T07:46:09;4.90;4.57;3.88;2.90;22.97;22.93;22.77;21.89;17.70;59.07
84066;SPS30;74151;52.134;5.500;2023-12-29T07:48:44;2.88;2.88;2.88;2.77;21.61;21.61;21.61;21.52;18.49;43.07
84066;SPS30;74151;52.134;5.500;2023-12-29T07:51:20;4.18;4.02;3.68;3.09;24.44;24.42;24.34;23.83;19.93;52.24
84066;SPS30;74151;52.134;5.500;2023-12-29T07:54:02;3.67;3.56;3.36;2.96;23.34;23.32;23.29;22.94;19.38;43.61
84066;SPS30;74151;52.134;5.500;2023-12-29T07:56:38;3.64;3.64;3.64;3.46;27.23;27.22;27.21;27.10;23.29;42.49
84066;SPS30;74151;52.134;5.500;2023-12-29T07:59:15;3.68;3.58;3.42;3.07;24.08;24.06;24.02;23.73;20.09;46.60
84066;SPS30;74151;52.134;5.500;2023-12-29T08:01:49;4.58;4.49;4.31;3.92;30.83;30.82;30.77;30.46;25.89;46.48
84066;SPS30;74151;52.134;5.500;2023-12-29T08:04:24;4.66;4.56;4.32;3.90;30.70;30.68;30.66;30.28;25.68;46.94
84066;SPS30;74151;52.134;5.500;2023-12-29T08:06:59;4.81;4.70;4.49;4.01;31.71;31.70;31.63;31.28;26.52;49.22
84066;SPS30;74151;52.134;5.500;2023-12-29T08:09:35;4.61;4.58;4.53;4.28;33.62;33.61;33.58;33.41;28.61;45.77
84066;SPS30;74151;52.134;5.500;2023-12-29T08:12:10;3.70;3.70;3.70;3.53;27.76;27.74;27.74;27.64;23.73;38.22
84066;SPS30;74151;52.134;5.500;2023-12-29T08:14:48;5.21;5.01;4.59;3.90;30.77;30.73;30.64;30.04;25.13;47.94
84066;SPS30;74151;52.134;5.500;2023-12-29T08:17:24;4.67;4.54;4.24;3.73;29.51;29.46;29.41;28.98;24.44;49.83
84066;SPS30;74151;52.134;5.500;2023-12-29T08:19:59;4.26;4.13;3.89;3.42;26.92;26.91;26.83;26.44;22.30;45.34
84066;SPS30;74151;52.134;5.500;2023-12-29T08:22:34;3.34;3.29;3.13;2.82;22.37;22.34;22.32;22.07;18.76;49.83
84066;SPS30;74151;52.134;5.500;2023-12-29T08:25:10;3.60;3.56;3.49;3.21;25.34;25.33;25.30;25.11;21.46;47.24
84066;SPS30;74151;52.134;5.500;2023-12-29T08:27:47;4.29;4.28;4.28;4.06;31.82;31.81;31.80;31.66;27.17;44.17
84066;SPS30;74151;52.134;5.500;2023-12-29T08:30:21;5.12;4.96;4.64;4.04;31.91;31.89;31.81;31.31;26.38;49.08
84066;SPS30;74151;52.134;5.500;2023-12-29T08:32:58;4.57;4.51;4.33;3.98;31.18;31.17;31.13;30.83;26.23;45.53
84066;SPS30;74151;52.134;5.500;2023-12-29T08:35:33;5.39;5.18;4.74;4.03;31.82;31.80;31.70;31.08;26.02;51.30
84066;SPS30;74151;52.134;5.500;2023-12-29T08:38:07;3.98;3.97;3.88;3.62;28.48;28.44;28.43;28.24;24.14;45.92
84066;SPS30;74151;52.134;5.500;2023-12-29T08:40:44;4.06;4.06;4.06;3.87;30.41;30.41;30.41;30.29;26.03;37.16
84066;SPS30;74151;52.134;5.500;2023-12-29T08:43:21;3.43;3.39;3.26;2.97;23.37;23.37;23.33;23.11;19.66;54.16
84066;SPS30;74151;52.134;5.500;2023-12-29T08:45:56;4.97;4.73;4.24;3.50;27.71;27.70;27.59;26.93;22.38;47.27
84066;SPS30;74151;52.134;5.500;2023-12-29T08:48:33;3.84;3.84;3.84;3.64;28.71;28.71;28.70;28.58;24.56;42.56
84066;SPS30;74151;52.134;5.500;2023-12-29T08:51:08;4.40;4.38;4.21;3.89;30.54;30.54;30.48;30.23;25.76;45.69
84066;SPS30;74151;52.134;5.500;2023-12-29T08:53:45;4.22;4.22;4.22;4.02;31.61;31.60;31.60;31.47;27.02;40.01
84066;SPS30;74151;52.134;5.500;2023-12-29T08:56:24;3.94;3.94;3.94;3.74;29.60;29.59;29.57;29.46;25.30;34.72
84066;SPS30;74151;52.134;5.500;2023-12-29T08:59:04;4.31;4.31;4.31;4.10;32.33;32.32;32.30;32.19;27.63;38.36
84066;SPS30;74151;52.134;5.500;2023-12-29T09:01:41;3.96;3.96;3.96;3.76;29.62;29.62;29.62;29.49;25.32;37.56
84066;SPS30;74151;52.134;5.500;2023-12-29T09:04:15;4.34;4.34;4.34;4.14;32.44;32.43;32.42;32.30;27.74;38.32
84066;SPS30;74151;52.134;5.500;2023-12-29T09:06:52;4.84;4.84;4.84;4.63;36.43;36.40;36.40;36.28;31.13;38.69
84066;SPS30;74151;52.134;5.500;2023-12-29T09:09:27;4.11;4.11;4.11;3.91;30.70;30.69;30.69;30.58;26.26;38.98
84066;SPS30;74151;52.134;5.500;2023-12-29T09:12:04;4.94;4.91;4.82;4.53;35.60;35.59;35.56;35.34;30.21;44.80
84066;SPS30;74151;52.134;5.500;2023-12-29T09:14:38;4.20;4.14;4.08;3.79;29.72;29.71;29.70;29.50;25.17;51.86
84066;SPS30;74151;52.134;5.500;2023-12-29T09:17:15;3.56;3.56;3.54;3.38;26.48;26.46;26.46;26.34;22.61;44.02
84066;SPS30;74151;52.134;5.500;2023-12-29T09:19:52;4.14;4.13;4.01;3.69;29.06;29.06;29.03;28.78;24.54;45.31
84066;SPS30;74151;52.134;5.500;2023-12-29T09:22:38;3.76;3.76;3.76;3.57;28.10;28.09;28.09;27.98;24.03;34.91
84066;SPS30;74151;52.134;5.500;2023-12-29T09:25:14;3.29;3.29;3.29;3.13;24.68;24.67;24.64;24.58;21.10;41.62
84066;SPS30;74151;52.134;5.500;2023-12-29T09:27:49;3.36;3.32;3.31;3.13;24.53;24.53;24.53;24.40;20.91;43.91
84066;SPS30;74151;52.134;5.500;2023-12-29T09:30:27;3.46;3.46;3.46;3.30;25.90;25.90;25.90;25.80;22.16;42.67
84066;SPS30;74151;52.134;5.500;2023-12-29T09:33:09;3.16;3.16;3.16;3.04;23.83;23.82;23.81;23.72;20.38;42.38
84066;SPS30;74151;52.134;5.500;2023-12-29T09:35:45;3.68;3.54;3.24;2.76;21.82;21.81;21.73;21.32;17.87;45.11
84066;SPS30;74151;52.134;5.500;2023-12-29T09:38:22;3.89;3.81;3.60;3.23;25.41;25.40;25.37;25.03;21.19;54.00
84066;SPS30;74151;52.134;5.500;2023-12-29T09:40:59;5.76;5.33;4.39;3.17;25.04;25.00;24.79;23.67;18.87;57.52
84066;SPS30;74151;52.134;5.500;2023-12-29T09:43:38;5.49;5.06;4.16;2.97;23.58;23.52;23.32;22.23;17.69;64.29
84066;SPS30;74151;52.134;5.500;2023-12-29T09:46:22;2.66;2.64;2.60;2.44;19.23;19.23;19.20;19.10;16.32;44.19